Jennifer C — WDI8828 — position and weather

sailwx.info

Track history (hours):
 
Tides and Currents Weather Stations Pressure Air Temp Water Temp Dewpoint Dewpoint Depression Visibility Wind Speed Wind Dir Waves Ship Positions

Jennifer C

Owner: Cross Sound Ferry Services, Inc, New London, CT. More information available from US FCC via Universal Licensing System and Coast Guard Vessel Documentation Center.

Last reported at 2017-Nov-18 01:50 UTC. Time now 2017-Nov-19 14:29 UTC.
Position N 41°16' W 072°07'.

Length 63 m.

Type: Passenger vessel. MMSI: 367742540.

Date/timePositionNaut miles runAvg speedWind from/ knotsBaromVisibWave heightAir tempDewpointWater temp
2017-Nov-18 01:50N 41°16' W 072°07'411.4
2017-Nov-18 01:29N 41°13' W 072°11'1 0.7
2017-Nov-17 23:54N 41°12' W 072°12'0 0.0
2017-Nov-17 13:28N 41°12' W 072°12'2 0.2
2017-Nov-17 02:11N 41°11' W 072°13'2 9.6
2017-Nov-17 02:00N 41°12' W 072°12'5 2.3
2017-Nov-16 23:51N 41°15' W 072°07'411.2
2017-Nov-16 23:30N 41°13' W 072°12'5 1.4
2017-Nov-16 19:49N 41°15' W 072°06'514.3
2017-Nov-16 19:29N 41°13' W 072°11'1 0.6
2017-Nov-16 17:52N 41°13' W 072°11'5 2.7
2017-Nov-16 16:01N 41°17' W 072°06'213.7
2017-Nov-16 15:52N 41°15' W 072°08'412.1
2017-Nov-16 15:30N 41°13' W 072°12'1 1.0
2017-Nov-16 14:09N 41°12' W 072°13'312.9
2017-Nov-16 13:56N 41°13' W 072°10'6 0.4
2017-Nov-16 00:04N 41°18' W 072°05'412.0
2017-Nov-15 23:45N 41°15' W 072°08'311.0
2017-Nov-15 23:30N 41°13' W 072°11'4 2.8
2017-Nov-15 22:10N 41°10' W 072°13'311.3
2017-Nov-15 21:56N 41°12' W 072°12'6 3.0
2017-Nov-15 19:53N 41°17' W 072°06'513.2
2017-Nov-15 19:29N 41°13' W 072°11'1 0.6
2017-Nov-15 18:02N 41°12' W 072°12'210.7
2017-Nov-15 17:52N 41°13' W 072°10'5 2.7
2017-Nov-15 15:57N 41°17' W 072°05'613.5
2017-Nov-15 15:30N 41°13' W 072°11'2 1.1
2017-Nov-15 13:59N 41°12' W 072°13'5 0.4
2017-Nov-14 23:52N 41°15' W 072°07'411.1
2017-Nov-14 23:30N 41°13' W 072°11'1 0.9
2017-Nov-14 21:55N 41°12' W 072°13'7 3.9
2017-Nov-14 20:03N 41°17' W 072°05'111.0
2017-Nov-14 20:00N 41°16' W 072°06'611.6
2017-Nov-14 19:29N 41°13' W 072°12'3 2.6
2017-Nov-14 18:14N 41°10' W 072°13'411.1
2017-Nov-14 17:50N 41°13' W 072°10'5 2.4
2017-Nov-14 15:55N 41°16' W 072°06'613.8
2017-Nov-14 15:31N 41°13' W 072°11'3 1.9
2017-Nov-14 14:07N 41°11' W 072°13'211.7
2017-Nov-14 13:55N 41°13' W 072°12'6 0.4
2017-Nov-14 00:04N 41°17' W 072°06'212.2
2017-Nov-13 23:55N 41°15' W 072°07'511.0
2017-Nov-13 23:29N 41°13' W 072°13'1 0.4
2017-Nov-13 21:56N 41°12' W 072°13'2 0.1
2017-Nov-13 02:00N 41°13' W 072°10'2 1.2
2017-Nov-13 00:26N 41°12' W 072°12'8 4.3
2017-Nov-12 22:35N 41°18' W 072°05'112.6
2017-Nov-12 22:29N 41°17' W 072°06'611.8
2017-Nov-12 22:00N 41°13' W 072°11'2 1.1
2017-Nov-12 20:23N 41°12' W 072°13'7 3.7
2017-Nov-12 18:26N 41°17' W 072°05'612.5
2017-Nov-12 17:58N 41°13' W 072°11'1 0.5
2017-Nov-12 16:19N 41°13' W 072°11'5 2.7
2017-Nov-12 14:24N 41°17' W 072°06'613.9
2017-Nov-12 14:00N 41°13' W 072°11'2 1.6
2017-Nov-12 12:33N 41°11' W 072°13'111.3
2017-Nov-12 12:29N 41°12' W 072°12'7 0.4
2017-Nov-11 17:58N 41°17' W 072°06'612.0
2017-Nov-11 17:26N 41°12' W 072°11'1 0.4
2017-Nov-11 15:59N 41°13' W 072°12'6 0.5
2017-Nov-11 01:56N 41°17' W 072°05'613.4
2017-Nov-11 01:30N 41°13' W 072°11'2 1.2
2017-Nov-11 00:09N 41°12' W 072°13'310.2
2017-Nov-10 23:53N 41°13' W 072°10'1 0.1
2017-Nov-10 17:46N 41°14' W 072°10'311.0
2017-Nov-10 17:30N 41°12' W 072°13'2 1.2
2017-Nov-10 15:59N 41°12' W 072°11'4 2.2
2017-Nov-10 13:57N 41°16' W 072°08'613.6
2017-Nov-10 13:31N 41°13' W 072°15'3 0.3
2017-Nov-10 01:50N 41°13' W 072°11'5 2.8
2017-Nov-09 23:55N 41°17' W 072°05'614.1
2017-Nov-09 23:30N 41°13' W 072°11'3 2.1
2017-Nov-09 22:12N 41°11' W 072°14'310.7
2017-Nov-09 21:53N 41°13' W 072°11'5 2.6
2017-Nov-09 19:58N 41°17' W 072°06'612.3
2017-Nov-09 19:30N 41°12' W 072°11'2 1.1
2017-Nov-09 17:56N 41°12' W 072°13'5 2.5
2017-Nov-09 15:51N 41°16' W 072°08'411.5
2017-Nov-09 15:30N 41°13' W 072°11'1 0.5
2017-Nov-09 13:47N 41°13' W 072°11'5 0.4
2017-Nov-08 23:52N 41°17' W 072°06'513.4
2017-Nov-08 23:30N 41°13' W 072°10'0 0.3
2017-Nov-08 21:51N 41°13' W 072°10'5 2.6
2017-Nov-08 19:57N 41°17' W 072°06'612.9
2017-Nov-08 19:29N 41°12' W 072°11'4 1.0
2017-Nov-08 15:55N 41°15' W 072°08'410.0
2017-Nov-08 15:30N 41°13' W 072°13'1 0.7
2017-Nov-08 13:52N 41°12' W 072°11'  
Track history (hours):
 
Tides and Currents Weather Stations Pressure Air Temp Water Temp Dewpoint Dewpoint Depression Visibility Wind Speed Wind Dir Waves Ship Positions

Jennifer C

Owner: Cross Sound Ferry Services, Inc, New London, CT. More information available from US FCC via Universal Licensing System and Coast Guard Vessel Documentation Center.

Last reported at 2017-Nov-18 01:50 UTC. Time now 2017-Nov-19 14:29 UTC.
Position N 41°16' W 072°07'.

Length 63 m.

Type: Passenger vessel. MMSI: 367742540.

Date/timePositionNaut miles runAvg speedWind from/ knotsBaromVisibWave heightAir tempDewpointWater temp
2017-Nov-18 01:50N 41°16' W 072°07'411.4
2017-Nov-18 01:29N 41°13' W 072°11'1 0.7
2017-Nov-17 23:54N 41°12' W 072°12'0 0.0
2017-Nov-17 13:28N 41°12' W 072°12'2 0.2
2017-Nov-17 02:11N 41°11' W 072°13'2 9.6
2017-Nov-17 02:00N 41°12' W 072°12'5 2.3
2017-Nov-16 23:51N 41°15' W 072°07'411.2
2017-Nov-16 23:30N 41°13' W 072°12'5 1.4
2017-Nov-16 19:49N 41°15' W 072°06'514.3
2017-Nov-16 19:29N 41°13' W 072°11'1 0.6
2017-Nov-16 17:52N 41°13' W 072°11'5 2.7
2017-Nov-16 16:01N 41°17' W 072°06'213.7
2017-Nov-16 15:52N 41°15' W 072°08'412.1
2017-Nov-16 15:30N 41°13' W 072°12'1 1.0
2017-Nov-16 14:09N 41°12' W 072°13'312.9
2017-Nov-16 13:56N 41°13' W 072°10'6 0.4
2017-Nov-16 00:04N 41°18' W 072°05'412.0
2017-Nov-15 23:45N 41°15' W 072°08'311.0
2017-Nov-15 23:30N 41°13' W 072°11'4 2.8
2017-Nov-15 22:10N 41°10' W 072°13'311.3
2017-Nov-15 21:56N 41°12' W 072°12'6 3.0
2017-Nov-15 19:53N 41°17' W 072°06'513.2
2017-Nov-15 19:29N 41°13' W 072°11'1 0.6
2017-Nov-15 18:02N 41°12' W 072°12'210.7
2017-Nov-15 17:52N 41°13' W 072°10'5 2.7
2017-Nov-15 15:57N 41°17' W 072°05'613.5
2017-Nov-15 15:30N 41°13' W 072°11'2 1.1
2017-Nov-15 13:59N 41°12' W 072°13'5 0.4
2017-Nov-14 23:52N 41°15' W 072°07'411.1
2017-Nov-14 23:30N 41°13' W 072°11'1 0.9
2017-Nov-14 21:55N 41°12' W 072°13'7 3.9
2017-Nov-14 20:03N 41°17' W 072°05'111.0
2017-Nov-14 20:00N 41°16' W 072°06'611.6
2017-Nov-14 19:29N 41°13' W 072°12'3 2.6
2017-Nov-14 18:14N 41°10' W 072°13'411.1
2017-Nov-14 17:50N 41°13' W 072°10'5 2.4
2017-Nov-14 15:55N 41°16' W 072°06'613.8
2017-Nov-14 15:31N 41°13' W 072°11'3 1.9
2017-Nov-14 14:07N 41°11' W 072°13'211.7
2017-Nov-14 13:55N 41°13' W 072°12'6 0.4
2017-Nov-14 00:04N 41°17' W 072°06'212.2
2017-Nov-13 23:55N 41°15' W 072°07'511.0
2017-Nov-13 23:29N 41°13' W 072°13'1 0.4
2017-Nov-13 21:56N 41°12' W 072°13'2 0.1
2017-Nov-13 02:00N 41°13' W 072°10'2 1.2
2017-Nov-13 00:26N 41°12' W 072°12'8 4.3
2017-Nov-12 22:35N 41°18' W 072°05'112.6
2017-Nov-12 22:29N 41°17' W 072°06'611.8
2017-Nov-12 22:00N 41°13' W 072°11'2 1.1
2017-Nov-12 20:23N 41°12' W 072°13'7 3.7
2017-Nov-12 18:26N 41°17' W 072°05'612.5
2017-Nov-12 17:58N 41°13' W 072°11'1 0.5
2017-Nov-12 16:19N 41°13' W 072°11'5 2.7
2017-Nov-12 14:24N 41°17' W 072°06'613.9
2017-Nov-12 14:00N 41°13' W 072°11'2 1.6
2017-Nov-12 12:33N 41°11' W 072°13'111.3
2017-Nov-12 12:29N 41°12' W 072°12'7 0.4
2017-Nov-11 17:58N 41°17' W 072°06'612.0
2017-Nov-11 17:26N 41°12' W 072°11'1 0.4
2017-Nov-11 15:59N 41°13' W 072°12'6 0.5
2017-Nov-11 01:56N 41°17' W 072°05'613.4
2017-Nov-11 01:30N 41°13' W 072°11'2 1.2
2017-Nov-11 00:09N 41°12' W 072°13'310.2
2017-Nov-10 23:53N 41°13' W 072°10'1 0.1
2017-Nov-10 17:46N 41°14' W 072°10'311.0
2017-Nov-10 17:30N 41°12' W 072°13'2 1.2
2017-Nov-10 15:59N 41°12' W 072°11'4 2.2
2017-Nov-10 13:57N 41°16' W 072°08'613.6
2017-Nov-10 13:31N 41°13' W 072°15'3 0.3
2017-Nov-10 01:50N 41°13' W 072°11'5 2.8
2017-Nov-09 23:55N 41°17' W 072°05'614.1
2017-Nov-09 23:30N 41°13' W 072°11'3 2.1
2017-Nov-09 22:12N 41°11' W 072°14'310.7
2017-Nov-09 21:53N 41°13' W 072°11'5 2.6
2017-Nov-09 19:58N 41°17' W 072°06'612.3
2017-Nov-09 19:30N 41°12' W 072°11'2 1.1
2017-Nov-09 17:56N 41°12' W 072°13'5 2.5
2017-Nov-09 15:51N 41°16' W 072°08'411.5
2017-Nov-09 15:30N 41°13' W 072°11'1 0.5
2017-Nov-09 13:47N 41°13' W 072°11'5 0.4
2017-Nov-08 23:52N 41°17' W 072°06'513.4
2017-Nov-08 23:30N 41°13' W 072°10'0 0.3
2017-Nov-08 21:51N 41°13' W 072°10'5 2.6
2017-Nov-08 19:57N 41°17' W 072°06'612.9
2017-Nov-08 19:29N 41°12' W 072°11'4 1.0
2017-Nov-08 15:55N 41°15' W 072°08'410.0
2017-Nov-08 15:30N 41°13' W 072°13'1 0.7
2017-Nov-08 13:52N 41°12' W 072°11'  

Dump ship's entire track history